sensor_id;sensor_type;location;lat;lon;timestamp;P1;durP1;ratioP1;P2;durP2;ratioP2
59530;SDS011;45349;48.692;8.186;2023-04-06T00:00:32;8.53;;;4.10;;
59530;SDS011;45349;48.692;8.186;2023-04-06T00:02:59;7.20;;;4.13;;
59530;SDS011;45349;48.692;8.186;2023-04-06T00:05:26;8.67;;;4.00;;
59530;SDS011;45349;48.692;8.186;2023-04-06T00:07:57;10.00;;;4.27;;
59530;SDS011;45349;48.692;8.186;2023-04-06T00:10:25;5.87;;;3.80;;
59530;SDS011;45349;48.692;8.186;2023-04-06T00:12:52;5.83;;;3.70;;
59530;SDS011;45349;48.692;8.186;2023-04-06T00:15:19;5.70;;;3.53;;
59530;SDS011;45349;48.692;8.186;2023-04-06T00:17:46;6.83;;;3.93;;
59530;SDS011;45349;48.692;8.186;2023-04-06T00:20:13;6.10;;;3.97;;
59530;SDS011;45349;48.692;8.186;2023-04-06T00:22:40;6.73;;;4.00;;
59530;SDS011;45349;48.692;8.186;2023-04-06T00:25:07;6.70;;;4.10;;
59530;SDS011;45349;48.692;8.186;2023-04-06T00:27:36;9.87;;;4.20;;
59530;SDS011;45349;48.692;8.186;2023-04-06T00:30:04;7.63;;;3.80;;
59530;SDS011;45349;48.692;8.186;2023-04-06T00:32:31;9.93;;;3.77;;
59530;SDS011;45349;48.692;8.186;2023-04-06T00:34:58;6.43;;;3.97;;
59530;SDS011;45349;48.692;8.186;2023-04-06T00:37:25;6.37;;;3.63;;
59530;SDS011;45349;48.692;8.186;2023-04-06T00:39:51;6.70;;;3.87;;
59530;SDS011;45349;48.692;8.186;2023-04-06T00:42:18;5.80;;;4.20;;
59530;SDS011;45349;48.692;8.186;2023-04-06T00:44:52;6.77;;;3.77;;
59530;SDS011;45349;48.692;8.186;2023-04-06T00:47:19;7.10;;;3.53;;
59530;SDS011;45349;48.692;8.186;2023-04-06T00:49:45;8.67;;;3.67;;
59530;SDS011;45349;48.692;8.186;2023-04-06T00:52:13;9.32;;;4.55;;
59530;SDS011;45349;48.692;8.186;2023-04-06T00:54:43;6.10;;;4.03;;
59530;SDS011;45349;48.692;8.186;2023-04-06T00:57:11;9.33;;;4.17;;
59530;SDS011;45349;48.692;8.186;2023-04-06T00:59:40;5.73;;;3.50;;
59530;SDS011;45349;48.692;8.186;2023-04-06T01:02:10;6.40;;;3.60;;
59530;SDS011;45349;48.692;8.186;2023-04-06T01:04:43;5.57;;;3.50;;
59530;SDS011;45349;48.692;8.186;2023-04-06T01:07:21;6.37;;;3.67;;
59530;SDS011;45349;48.692;8.186;2023-04-06T01:10:01;8.20;;;3.47;;
59530;SDS011;45349;48.692;8.186;2023-04-06T01:12:30;7.70;;;3.70;;
59530;SDS011;45349;48.692;8.186;2023-04-06T01:15:00;5.50;;;3.43;;
59530;SDS011;45349;48.692;8.186;2023-04-06T01:17:31;6.23;;;3.60;;
59530;SDS011;45349;48.692;8.186;2023-04-06T01:20:06;8.03;;;4.13;;
59530;SDS011;45349;48.692;8.186;2023-04-06T01:22:35;7.70;;;3.53;;
59530;SDS011;45349;48.692;8.186;2023-04-06T01:25:03;5.23;;;3.60;;
59530;SDS011;45349;48.692;8.186;2023-04-06T01:27:36;5.77;;;3.87;;
59530;SDS011;45349;48.692;8.186;2023-04-06T01:30:22;8.97;;;4.00;;
59530;SDS011;45349;48.692;8.186;2023-04-06T01:32:59;6.53;;;3.40;;
59530;SDS011;45349;48.692;8.186;2023-04-06T01:35:58;5.57;;;3.40;;
59530;SDS011;45349;48.692;8.186;2023-04-06T01:38:26;7.13;;;4.00;;
59530;SDS011;45349;48.692;8.186;2023-04-06T01:40:55;9.47;;;3.80;;
59530;SDS011;45349;48.692;8.186;2023-04-06T01:43:24;6.07;;;4.00;;
59530;SDS011;45349;48.692;8.186;2023-04-06T01:46:04;6.70;;;3.90;;
59530;SDS011;45349;48.692;8.186;2023-04-06T01:48:34;6.67;;;3.63;;
59530;SDS011;45349;48.692;8.186;2023-04-06T01:51:11;6.63;;;4.17;;
59530;SDS011;45349;48.692;8.186;2023-04-06T01:53:47;9.73;;;4.33;;
59530;SDS011;45349;48.692;8.186;2023-04-06T01:56:16;6.00;;;4.00;;
59530;SDS011;45349;48.692;8.186;2023-04-06T01:58:51;6.23;;;4.03;;
59530;SDS011;45349;48.692;8.186;2023-04-06T02:01:18;5.93;;;3.90;;
59530;SDS011;45349;48.692;8.186;2023-04-06T02:03:51;7.47;;;4.40;;
59530;SDS011;45349;48.692;8.186;2023-04-06T02:06:18;9.07;;;4.27;;
59530;SDS011;45349;48.692;8.186;2023-04-06T02:08:48;5.40;;;3.83;;
59530;SDS011;45349;48.692;8.186;2023-04-06T02:11:15;9.50;;;4.53;;
59530;SDS011;45349;48.692;8.186;2023-04-06T02:13:46;6.30;;;4.40;;
59530;SDS011;45349;48.692;8.186;2023-04-06T02:16:14;6.80;;;4.30;;
59530;SDS011;45349;48.692;8.186;2023-04-06T02:18:42;5.73;;;4.10;;
59530;SDS011;45349;48.692;8.186;2023-04-06T02:21:09;6.77;;;4.03;;
59530;SDS011;45349;48.692;8.186;2023-04-06T02:23:35;7.63;;;4.50;;
59530;SDS011;45349;48.692;8.186;2023-04-06T02:26:04;9.10;;;4.80;;
59530;SDS011;45349;48.692;8.186;2023-04-06T02:28:30;8.33;;;4.90;;
59530;SDS011;45349;48.692;8.186;2023-04-06T02:31:00;8.50;;;4.60;;
59530;SDS011;45349;48.692;8.186;2023-04-06T02:33:27;7.13;;;4.33;;
59530;SDS011;45349;48.692;8.186;2023-04-06T02:35:55;10.33;;;4.60;;
59530;SDS011;45349;48.692;8.186;2023-04-06T02:38:22;9.03;;;4.67;;
59530;SDS011;45349;48.692;8.186;2023-04-06T02:40:51;7.07;;;4.40;;
59530;SDS011;45349;48.692;8.186;2023-04-06T02:43:24;7.93;;;4.63;;
59530;SDS011;45349;48.692;8.186;2023-04-06T02:46:00;7.40;;;4.60;;
59530;SDS011;45349;48.692;8.186;2023-04-06T02:48:28;13.67;;;4.50;;
59530;SDS011;45349;48.692;8.186;2023-04-06T02:50:57;7.93;;;4.57;;
59530;SDS011;45349;48.692;8.186;2023-04-06T02:53:23;8.37;;;5.07;;
59530;SDS011;45349;48.692;8.186;2023-04-06T02:55:50;10.37;;;5.50;;
59530;SDS011;45349;48.692;8.186;2023-04-06T02:58:17;8.60;;;5.70;;
59530;SDS011;45349;48.692;8.186;2023-04-06T03:00:50;12.03;;;5.73;;
59530;SDS011;45349;48.692;8.186;2023-04-06T03:03:17;9.13;;;5.03;;
59530;SDS011;45349;48.692;8.186;2023-04-06T03:05:45;8.90;;;5.23;;
59530;SDS011;45349;48.692;8.186;2023-04-06T03:08:14;10.63;;;5.60;;
59530;SDS011;45349;48.692;8.186;2023-04-06T03:10:43;9.00;;;5.07;;
59530;SDS011;45349;48.692;8.186;2023-04-06T03:13:10;9.90;;;5.30;;
59530;SDS011;45349;48.692;8.186;2023-04-06T03:15:46;14.97;;;5.17;;
59530;SDS011;45349;48.692;8.186;2023-04-06T03:18:22;9.80;;;5.00;;
59530;SDS011;45349;48.692;8.186;2023-04-06T03:20:50;8.47;;;5.37;;
59530;SDS011;45349;48.692;8.186;2023-04-06T03:23:19;8.00;;;5.00;;
59530;SDS011;45349;48.692;8.186;2023-04-06T03:25:50;8.87;;;5.50;;
59530;SDS011;45349;48.692;8.186;2023-04-06T03:28:19;9.03;;;5.67;;
59530;SDS011;45349;48.692;8.186;2023-04-06T03:33:38;9.60;;;5.60;;
59530;SDS011;45349;48.692;8.186;2023-04-06T03:36:07;7.50;;;5.17;;
59530;SDS011;45349;48.692;8.186;2023-04-06T03:38:38;11.57;;;6.07;;
59530;SDS011;45349;48.692;8.186;2023-04-06T03:41:09;8.67;;;5.87;;
59530;SDS011;45349;48.692;8.186;2023-04-06T03:43:38;10.47;;;5.13;;
59530;SDS011;45349;48.692;8.186;2023-04-06T03:46:05;7.50;;;5.00;;
59530;SDS011;45349;48.692;8.186;2023-04-06T03:48:32;9.63;;;5.63;;
59530;SDS011;45349;48.692;8.186;2023-04-06T03:51:04;10.27;;;5.63;;
59530;SDS011;45349;48.692;8.186;2023-04-06T03:53:31;10.53;;;6.10;;
59530;SDS011;45349;48.692;8.186;2023-04-06T03:55:57;12.93;;;6.23;;
59530;SDS011;45349;48.692;8.186;2023-04-06T03:58:26;8.00;;;5.40;;
59530;SDS011;45349;48.692;8.186;2023-04-06T04:00:55;7.67;;;5.43;;
59530;SDS011;45349;48.692;8.186;2023-04-06T04:03:22;10.50;;;5.73;;
59530;SDS011;45349;48.692;8.186;2023-04-06T04:05:52;9.90;;;6.10;;
59530;SDS011;45349;48.692;8.186;2023-04-06T04:08:20;9.10;;;5.63;;
59530;SDS011;45349;48.692;8.186;2023-04-06T04:10:47;13.30;;;6.17;;
59530;SDS011;45349;48.692;8.186;2023-04-06T04:13:13;10.20;;;5.53;;
59530;SDS011;45349;48.692;8.186;2023-04-06T04:15:43;15.33;;;5.50;;
59530;SDS011;45349;48.692;8.186;2023-04-06T04:18:12;10.23;;;6.17;;
59530;SDS011;45349;48.692;8.186;2023-04-06T04:20:39;11.73;;;5.70;;
59530;SDS011;45349;48.692;8.186;2023-04-06T04:23:08;11.67;;;5.70;;
59530;SDS011;45349;48.692;8.186;2023-04-06T04:25:36;9.27;;;6.03;;
59530;SDS011;45349;48.692;8.186;2023-04-06T04:28:03;8.60;;;6.07;;
59530;SDS011;45349;48.692;8.186;2023-04-06T04:30:31;9.30;;;5.43;;
59530;SDS011;45349;48.692;8.186;2023-04-06T04:32:57;8.37;;;5.80;;
59530;SDS011;45349;48.692;8.186;2023-04-06T04:35:24;8.00;;;5.03;;
59530;SDS011;45349;48.692;8.186;2023-04-06T04:37:52;10.33;;;5.93;;
59530;SDS011;45349;48.692;8.186;2023-04-06T04:40:19;9.13;;;5.70;;
59530;SDS011;45349;48.692;8.186;2023-04-06T04:42:53;9.33;;;6.00;;
59530;SDS011;45349;48.692;8.186;2023-04-06T04:45:28;9.37;;;5.97;;
59530;SDS011;45349;48.692;8.186;2023-04-06T04:47:56;9.60;;;5.37;;
59530;SDS011;45349;48.692;8.186;2023-04-06T04:50:28;11.90;;;6.03;;
59530;SDS011;45349;48.692;8.186;2023-04-06T04:52:57;12.17;;;6.03;;
59530;SDS011;45349;48.692;8.186;2023-04-06T04:55:25;12.40;;;6.30;;
59530;SDS011;45349;48.692;8.186;2023-04-06T04:57:56;9.43;;;6.10;;
59530;SDS011;45349;48.692;8.186;2023-04-06T05:00:43;10.37;;;5.60;;
59530;SDS011;45349;48.692;8.186;2023-04-06T05:03:11;9.03;;;5.77;;
59530;SDS011;45349;48.692;8.186;2023-04-06T05:05:53;8.43;;;5.57;;
59530;SDS011;45349;48.692;8.186;2023-04-06T05:08:23;9.27;;;5.60;;
59530;SDS011;45349;48.692;8.186;2023-04-06T05:10:50;13.53;;;5.20;;
59530;SDS011;45349;48.692;8.186;2023-04-06T05:13:19;11.97;;;5.93;;
59530;SDS011;45349;48.692;8.186;2023-04-06T05:15:48;8.87;;;5.50;;
59530;SDS011;45349;48.692;8.186;2023-04-06T05:18:33;10.13;;;5.67;;
59530;SDS011;45349;48.692;8.186;2023-04-06T05:21:01;9.90;;;5.73;;
59530;SDS011;45349;48.692;8.186;2023-04-06T05:23:37;11.43;;;6.17;;
59530;SDS011;45349;48.692;8.186;2023-04-06T05:26:04;10.90;;;5.40;;
59530;SDS011;45349;48.692;8.186;2023-04-06T05:28:33;9.63;;;5.80;;
59530;SDS011;45349;48.692;8.186;2023-04-06T05:31:02;10.10;;;5.70;;
59530;SDS011;45349;48.692;8.186;2023-04-06T05:33:37;8.97;;;5.93;;
59530;SDS011;45349;48.692;8.186;2023-04-06T05:36:08;11.43;;;6.20;;
59530;SDS011;45349;48.692;8.186;2023-04-06T05:38:39;10.37;;;6.13;;
59530;SDS011;45349;48.692;8.186;2023-04-06T05:41:19;10.17;;;6.00;;
59530;SDS011;45349;48.692;8.186;2023-04-06T05:43:47;11.23;;;5.90;;
59530;SDS011;45349;48.692;8.186;2023-04-06T05:46:14;12.53;;;7.80;;
59530;SDS011;45349;48.692;8.186;2023-04-06T05:48:41;10.63;;;6.37;;
59530;SDS011;45349;48.692;8.186;2023-04-06T05:51:09;9.67;;;6.03;;
59530;SDS011;45349;48.692;8.186;2023-04-06T05:53:42;9.27;;;5.80;;
59530;SDS011;45349;48.692;8.186;2023-04-06T05:56:09;7.90;;;5.20;;
59530;SDS011;45349;48.692;8.186;2023-04-06T05:58:36;9.93;;;6.17;;
59530;SDS011;45349;48.692;8.186;2023-04-06T06:01:06;14.03;;;7.00;;
59530;SDS011;45349;48.692;8.186;2023-04-06T06:03:38;10.27;;;6.40;;
59530;SDS011;45349;48.692;8.186;2023-04-06T06:06:05;8.30;;;5.17;;
59530;SDS011;45349;48.692;8.186;2023-04-06T06:08:46;12.30;;;6.73;;
59530;SDS011;45349;48.692;8.186;2023-04-06T06:11:15;11.80;;;6.87;;
59530;SDS011;45349;48.692;8.186;2023-04-06T06:13:42;9.83;;;6.03;;
59530;SDS011;45349;48.692;8.186;2023-04-06T06:16:10;10.70;;;5.97;;
59530;SDS011;45349;48.692;8.186;2023-04-06T06:18:42;9.90;;;5.87;;
59530;SDS011;45349;48.692;8.186;2023-04-06T06:21:09;11.57;;;7.77;;
59530;SDS011;45349;48.692;8.186;2023-04-06T06:23:37;11.03;;;6.20;;
59530;SDS011;45349;48.692;8.186;2023-04-06T06:26:05;12.67;;;6.43;;
59530;SDS011;45349;48.692;8.186;2023-04-06T06:28:32;9.13;;;5.90;;
59530;SDS011;45349;48.692;8.186;2023-04-06T06:30:58;7.97;;;5.50;;
59530;SDS011;45349;48.692;8.186;2023-04-06T06:33:27;8.30;;;5.37;;
59530;SDS011;45349;48.692;8.186;2023-04-06T06:35:58;7.73;;;5.57;;
59530;SDS011;45349;48.692;8.186;2023-04-06T06:38:25;10.40;;;5.37;;
59530;SDS011;45349;48.692;8.186;2023-04-06T06:40:53;8.57;;;4.90;;
59530;SDS011;45349;48.692;8.186;2023-04-06T06:43:23;9.70;;;6.07;;
59530;SDS011;45349;48.692;8.186;2023-04-06T06:45:56;9.00;;;5.20;;
59530;SDS011;45349;48.692;8.186;2023-04-06T06:48:24;8.97;;;5.83;;
59530;SDS011;45349;48.692;8.186;2023-04-06T06:50:52;7.47;;;5.53;;
59530;SDS011;45349;48.692;8.186;2023-04-06T06:53:19;9.63;;;5.80;;
59530;SDS011;45349;48.692;8.186;2023-04-06T06:55:46;8.73;;;5.53;;
59530;SDS011;45349;48.692;8.186;2023-04-06T06:58:14;9.50;;;5.27;;
59530;SDS011;45349;48.692;8.186;2023-04-06T07:00:41;8.07;;;5.57;;
59530;SDS011;45349;48.692;8.186;2023-04-06T07:03:08;9.97;;;6.17;;
59530;SDS011;45349;48.692;8.186;2023-04-06T07:05:35;8.30;;;5.57;;
59530;SDS011;45349;48.692;8.186;2023-04-06T07:08:03;9.17;;;5.50;;
59530;SDS011;45349;48.692;8.186;2023-04-06T07:10:30;10.93;;;5.87;;
59530;SDS011;45349;48.692;8.186;2023-04-06T07:12:57;8.47;;;5.53;;
59530;SDS011;45349;48.692;8.186;2023-04-06T07:15:24;9.70;;;5.80;;
59530;SDS011;45349;48.692;8.186;2023-04-06T07:17:51;9.80;;;5.60;;
59530;SDS011;45349;48.692;8.186;2023-04-06T07:20:20;8.10;;;5.90;;
59530;SDS011;45349;48.692;8.186;2023-04-06T07:22:47;8.30;;;5.07;;
59530;SDS011;45349;48.692;8.186;2023-04-06T07:25:15;8.43;;;5.47;;
59530;SDS011;45349;48.692;8.186;2023-04-06T07:27:42;7.30;;;4.87;;
59530;SDS011;45349;48.692;8.186;2023-04-06T07:30:10;10.67;;;5.13;;
59530;SDS011;45349;48.692;8.186;2023-04-06T07:32:37;8.03;;;4.93;;
59530;SDS011;45349;48.692;8.186;2023-04-06T07:35:05;9.33;;;5.30;;
59530;SDS011;45349;48.692;8.186;2023-04-06T07:37:32;8.10;;;5.40;;
59530;SDS011;45349;48.692;8.186;2023-04-06T07:39:59;9.77;;;5.13;;
59530;SDS011;45349;48.692;8.186;2023-04-06T07:42:28;20.63;;;13.77;;
59530;SDS011;45349;48.692;8.186;2023-04-06T07:44:54;8.70;;;6.00;;
59530;SDS011;45349;48.692;8.186;2023-04-06T07:47:21;13.87;;;6.60;;
59530;SDS011;45349;48.692;8.186;2023-04-06T07:49:49;9.50;;;6.40;;
59530;SDS011;45349;48.692;8.186;2023-04-06T07:52:16;8.67;;;5.80;;
59530;SDS011;45349;48.692;8.186;2023-04-06T07:54:43;11.93;;;7.13;;
59530;SDS011;45349;48.692;8.186;2023-04-06T07:57:10;9.93;;;7.30;;
59530;SDS011;45349;48.692;8.186;2023-04-06T07:59:39;12.13;;;7.20;;
59530;SDS011;45349;48.692;8.186;2023-04-06T08:02:05;17.97;;;8.33;;
59530;SDS011;45349;48.692;8.186;2023-04-06T08:04:32;14.10;;;8.07;;
59530;SDS011;45349;48.692;8.186;2023-04-06T08:06:59;14.27;;;8.60;;
59530;SDS011;45349;48.692;8.186;2023-04-06T08:09:26;16.17;;;9.80;;
59530;SDS011;45349;48.692;8.186;2023-04-06T08:11:53;16.60;;;9.43;;
59530;SDS011;45349;48.692;8.186;2023-04-06T08:14:20;13.10;;;8.80;;
59530;SDS011;45349;48.692;8.186;2023-04-06T08:16:48;19.60;;;12.00;;
59530;SDS011;45349;48.692;8.186;2023-04-06T08:19:15;18.63;;;9.90;;
59530;SDS011;45349;48.692;8.186;2023-04-06T08:21:42;15.73;;;10.45;;
59530;SDS011;45349;48.692;8.186;2023-04-06T08:24:09;16.30;;;10.10;;
59530;SDS011;45349;48.692;8.186;2023-04-06T08:26:35;16.33;;;10.93;;
59530;SDS011;45349;48.692;8.186;2023-04-06T08:29:02;22.43;;;10.90;;
59530;SDS011;45349;48.692;8.186;2023-04-06T08:31:32;24.50;;;11.40;;
59530;SDS011;45349;48.692;8.186;2023-04-06T08:34:00;19.87;;;10.90;;
59530;SDS011;45349;48.692;8.186;2023-04-06T08:36:28;16.43;;;9.83;;
59530;SDS011;45349;48.692;8.186;2023-04-06T08:38:55;16.00;;;10.00;;
59530;SDS011;45349;48.692;8.186;2023-04-06T08:41:22;14.53;;;9.77;;
59530;SDS011;45349;48.692;8.186;2023-04-06T08:43:49;11.97;;;8.90;;
59530;SDS011;45349;48.692;8.186;2023-04-06T08:46:21;14.53;;;9.97;;
59530;SDS011;45349;48.692;8.186;2023-04-06T08:48:48;15.03;;;9.90;;
59530;SDS011;45349;48.692;8.186;2023-04-06T08:51:17;19.17;;;11.80;;
59530;SDS011;45349;48.692;8.186;2023-04-06T08:53:45;17.13;;;10.80;;
59530;SDS011;45349;48.692;8.186;2023-04-06T08:56:13;18.47;;;10.77;;
59530;SDS011;45349;48.692;8.186;2023-04-06T08:58:41;17.60;;;10.70;;
59530;SDS011;45349;48.692;8.186;2023-04-06T09:01:08;15.80;;;10.53;;
59530;SDS011;45349;48.692;8.186;2023-04-06T09:03:38;16.27;;;11.03;;
59530;SDS011;45349;48.692;8.186;2023-04-06T09:06:06;14.67;;;10.73;;
59530;SDS011;45349;48.692;8.186;2023-04-06T09:08:35;24.60;;;13.07;;
59530;SDS011;45349;48.692;8.186;2023-04-06T09:11:05;23.03;;;12.47;;
59530;SDS011;45349;48.692;8.186;2023-04-06T09:13:43;17.47;;;10.40;;
59530;SDS011;45349;48.692;8.186;2023-04-06T09:16:11;15.07;;;10.47;;
59530;SDS011;45349;48.692;8.186;2023-04-06T09:18:37;18.13;;;10.93;;
59530;SDS011;45349;48.692;8.186;2023-04-06T09:21:05;18.83;;;11.40;;
59530;SDS011;45349;48.692;8.186;2023-04-06T09:23:33;16.07;;;10.17;;
59530;SDS011;45349;48.692;8.186;2023-04-06T09:26:08;17.43;;;12.47;;
59530;SDS011;45349;48.692;8.186;2023-04-06T09:28:43;14.17;;;9.77;;
59530;SDS011;45349;48.692;8.186;2023-04-06T09:31:11;18.07;;;10.03;;
59530;SDS011;45349;48.692;8.186;2023-04-06T09:33:38;15.87;;;9.43;;
59530;SDS011;45349;48.692;8.186;2023-04-06T09:36:07;16.83;;;9.40;;
59530;SDS011;45349;48.692;8.186;2023-04-06T09:38:36;13.37;;;9.13;;
59530;SDS011;45349;48.692;8.186;2023-04-06T09:41:03;14.33;;;9.50;;
59530;SDS011;45349;48.692;8.186;2023-04-06T09:43:33;15.20;;;9.47;;
59530;SDS011;45349;48.692;8.186;2023-04-06T09:46:00;16.57;;;9.17;;
59530;SDS011;45349;48.692;8.186;2023-04-06T09:48:29;13.43;;;9.53;;
59530;SDS011;45349;48.692;8.186;2023-04-06T09:50:58;12.70;;;8.20;;
59530;SDS011;45349;48.692;8.186;2023-04-06T09:53:27;14.73;;;8.77;;
59530;SDS011;45349;48.692;8.186;2023-04-06T09:55:57;13.40;;;8.90;;
59530;SDS011;45349;48.692;8.186;2023-04-06T09:58:28;13.47;;;8.47;;
59530;SDS011;45349;48.692;8.186;2023-04-06T10:01:05;17.77;;;8.73;;
59530;SDS011;45349;48.692;8.186;2023-04-06T10:03:36;10.73;;;8.23;;
59530;SDS011;45349;48.692;8.186;2023-04-06T10:06:10;13.93;;;8.23;;
59530;SDS011;45349;48.692;8.186;2023-04-06T10:08:40;16.70;;;8.70;;
59530;SDS011;45349;48.692;8.186;2023-04-06T10:11:07;14.07;;;8.20;;
59530;SDS011;45349;48.692;8.186;2023-04-06T10:13:36;12.00;;;7.70;;
59530;SDS011;45349;48.692;8.186;2023-04-06T10:16:03;15.13;;;8.73;;
59530;SDS011;45349;48.692;8.186;2023-04-06T10:18:32;12.03;;;7.60;;
59530;SDS011;45349;48.692;8.186;2023-04-06T10:21:00;11.90;;;8.17;;
59530;SDS011;45349;48.692;8.186;2023-04-06T10:23:30;13.60;;;8.07;;
59530;SDS011;45349;48.692;8.186;2023-04-06T10:26:00;16.57;;;8.57;;
59530;SDS011;45349;48.692;8.186;2023-04-06T10:28:30;14.07;;;8.10;;
59530;SDS011;45349;48.692;8.186;2023-04-06T10:30:59;12.90;;;8.20;;
59530;SDS011;45349;48.692;8.186;2023-04-06T10:33:27;12.83;;;7.47;;
59530;SDS011;45349;48.692;8.186;2023-04-06T10:35:56;12.37;;;7.17;;
59530;SDS011;45349;48.692;8.186;2023-04-06T10:38:32;14.17;;;7.27;;
59530;SDS011;45349;48.692;8.186;2023-04-06T10:41:03;12.67;;;8.07;;
59530;SDS011;45349;48.692;8.186;2023-04-06T10:43:32;11.63;;;7.63;;
59530;SDS011;45349;48.692;8.186;2023-04-06T10:46:01;12.33;;;8.10;;
59530;SDS011;45349;48.692;8.186;2023-04-06T10:48:36;10.33;;;7.93;;
59530;SDS011;45349;48.692;8.186;2023-04-06T10:51:07;12.13;;;7.30;;
59530;SDS011;45349;48.692;8.186;2023-04-06T10:53:35;12.83;;;8.00;;
59530;SDS011;45349;48.692;8.186;2023-04-06T10:56:02;12.47;;;8.27;;
59530;SDS011;45349;48.692;8.186;2023-04-06T10:58:29;11.73;;;7.53;;
59530;SDS011;45349;48.692;8.186;2023-04-06T11:00:56;12.47;;;7.83;;
59530;SDS011;45349;48.692;8.186;2023-04-06T11:03:26;13.47;;;7.77;;
59530;SDS011;45349;48.692;8.186;2023-04-06T11:05:55;13.73;;;8.07;;
59530;SDS011;45349;48.692;8.186;2023-04-06T11:08:22;10.70;;;7.43;;
59530;SDS011;45349;48.692;8.186;2023-04-06T11:10:49;13.03;;;7.47;;
59530;SDS011;45349;48.692;8.186;2023-04-06T11:13:16;12.53;;;7.63;;
59530;SDS011;45349;48.692;8.186;2023-04-06T11:15:43;11.90;;;7.03;;
59530;SDS011;45349;48.692;8.186;2023-04-06T11:18:10;10.00;;;6.47;;
59530;SDS011;45349;48.692;8.186;2023-04-06T11:20:38;9.53;;;6.33;;
59530;SDS011;45349;48.692;8.186;2023-04-06T11:23:05;14.33;;;7.17;;
59530;SDS011;45349;48.692;8.186;2023-04-06T11:25:32;10.13;;;6.07;;
59530;SDS011;45349;48.692;8.186;2023-04-06T11:27:58;10.97;;;6.33;;
59530;SDS011;45349;48.692;8.186;2023-04-06T11:30:25;6.87;;;5.37;;
59530;SDS011;45349;48.692;8.186;2023-04-06T11:32:59;7.70;;;5.13;;
59530;SDS011;45349;48.692;8.186;2023-04-06T11:35:27;8.13;;;5.13;;
59530;SDS011;45349;48.692;8.186;2023-04-06T11:38:02;7.53;;;5.03;;
59530;SDS011;45349;48.692;8.186;2023-04-06T11:40:29;7.10;;;5.17;;
59530;SDS011;45349;48.692;8.186;2023-04-06T11:42:58;6.40;;;4.83;;
59530;SDS011;45349;48.692;8.186;2023-04-06T11:45:25;6.13;;;4.70;;
59530;SDS011;45349;48.692;8.186;2023-04-06T11:47:55;8.00;;;4.43;;
59530;SDS011;45349;48.692;8.186;2023-04-06T11:50:24;6.43;;;4.40;;
59530;SDS011;45349;48.692;8.186;2023-04-06T11:52:57;7.23;;;4.83;;
59530;SDS011;45349;48.692;8.186;2023-04-06T11:55:26;7.20;;;4.50;;
59530;SDS011;45349;48.692;8.186;2023-04-06T11:57:53;8.03;;;4.87;;
59530;SDS011;45349;48.692;8.186;2023-04-06T12:00:45;6.83;;;4.47;;
59530;SDS011;45349;48.692;8.186;2023-04-06T12:03:12;6.60;;;4.33;;
59530;SDS011;45349;48.692;8.186;2023-04-06T12:05:39;9.00;;;5.00;;
59530;SDS011;45349;48.692;8.186;2023-04-06T12:08:07;8.97;;;5.17;;
59530;SDS011;45349;48.692;8.186;2023-04-06T12:10:34;8.77;;;5.20;;
59530;SDS011;45349;48.692;8.186;2023-04-06T12:13:00;8.63;;;5.73;;
59530;SDS011;45349;48.692;8.186;2023-04-06T12:15:27;10.43;;;5.90;;
59530;SDS011;45349;48.692;8.186;2023-04-06T12:17:54;9.57;;;5.93;;
59530;SDS011;45349;48.692;8.186;2023-04-06T12:20:21;8.73;;;6.50;;
59530;SDS011;45349;48.692;8.186;2023-04-06T12:22:47;10.33;;;7.10;;
59530;SDS011;45349;48.692;8.186;2023-04-06T12:25:16;12.13;;;7.70;;
59530;SDS011;45349;48.692;8.186;2023-04-06T12:27:42;11.23;;;7.03;;
59530;SDS011;45349;48.692;8.186;2023-04-06T12:30:09;12.53;;;7.67;;
59530;SDS011;45349;48.692;8.186;2023-04-06T12:32:37;10.27;;;6.93;;
59530;SDS011;45349;48.692;8.186;2023-04-06T12:35:04;9.87;;;6.53;;
59530;SDS011;45349;48.692;8.186;2023-04-06T12:37:31;11.87;;;7.87;;
59530;SDS011;45349;48.692;8.186;2023-04-06T12:39:58;12.50;;;7.03;;
59530;SDS011;45349;48.692;8.186;2023-04-06T12:42:26;11.60;;;7.63;;
59530;SDS011;45349;48.692;8.186;2023-04-06T12:44:53;10.53;;;7.30;;
59530;SDS011;45349;48.692;8.186;2023-04-06T12:47:20;12.33;;;7.60;;
59530;SDS011;45349;48.692;8.186;2023-04-06T12:49:47;11.60;;;7.53;;
59530;SDS011;45349;48.692;8.186;2023-04-06T12:52:15;10.77;;;6.97;;
59530;SDS011;45349;48.692;8.186;2023-04-06T12:54:41;11.10;;;6.53;;
59530;SDS011;45349;48.692;8.186;2023-04-06T12:57:08;9.80;;;6.30;;
59530;SDS011;45349;48.692;8.186;2023-04-06T12:59:37;8.60;;;5.47;;
59530;SDS011;45349;48.692;8.186;2023-04-06T13:02:03;11.10;;;6.90;;
59530;SDS011;45349;48.692;8.186;2023-04-06T13:04:32;10.93;;;6.47;;
59530;SDS011;45349;48.692;8.186;2023-04-06T13:06:58;10.23;;;6.17;;
59530;SDS011;45349;48.692;8.186;2023-04-06T13:09:25;8.67;;;5.70;;
59530;SDS011;45349;48.692;8.186;2023-04-06T13:11:52;8.87;;;6.20;;
59530;SDS011;45349;48.692;8.186;2023-04-06T13:14:19;10.60;;;6.00;;
59530;SDS011;45349;48.692;8.186;2023-04-06T13:16:47;9.37;;;6.53;;
59530;SDS011;45349;48.692;8.186;2023-04-06T13:19:14;9.30;;;5.90;;
59530;SDS011;45349;48.692;8.186;2023-04-06T13:21:41;11.47;;;6.37;;
59530;SDS011;45349;48.692;8.186;2023-04-06T13:24:08;9.83;;;5.87;;
59530;SDS011;45349;48.692;8.186;2023-04-06T13:26:35;9.53;;;6.43;;
59530;SDS011;45349;48.692;8.186;2023-04-06T13:29:02;10.20;;;6.43;;
59530;SDS011;45349;48.692;8.186;2023-04-06T13:31:29;11.10;;;6.90;;
59530;SDS011;45349;48.692;8.186;2023-04-06T13:33:57;11.30;;;6.00;;
59530;SDS011;45349;48.692;8.186;2023-04-06T13:36:25;11.17;;;6.10;;
59530;SDS011;45349;48.692;8.186;2023-04-06T13:38:52;10.03;;;6.07;;
59530;SDS011;45349;48.692;8.186;2023-04-06T13:41:20;9.87;;;5.47;;
59530;SDS011;45349;48.692;8.186;2023-04-06T13:43:47;8.87;;;5.43;;
59530;SDS011;45349;48.692;8.186;2023-04-06T13:46:14;8.80;;;4.97;;
59530;SDS011;45349;48.692;8.186;2023-04-06T13:48:41;8.33;;;4.90;;
59530;SDS011;45349;48.692;8.186;2023-04-06T13:51:10;9.73;;;5.33;;
59530;SDS011;45349;48.692;8.186;2023-04-06T13:53:38;5.47;;;4.10;;
59530;SDS011;45349;48.692;8.186;2023-04-06T13:56:05;8.30;;;5.37;;
59530;SDS011;45349;48.692;8.186;2023-04-06T13:58:33;10.47;;;5.03;;
59530;SDS011;45349;48.692;8.186;2023-04-06T14:01:01;9.33;;;6.00;;
59530;SDS011;45349;48.692;8.186;2023-04-06T14:03:29;7.60;;;5.37;;
59530;SDS011;45349;48.692;8.186;2023-04-06T14:05:57;7.83;;;5.30;;
59530;SDS011;45349;48.692;8.186;2023-04-06T14:08:24;7.83;;;5.57;;
59530;SDS011;45349;48.692;8.186;2023-04-06T14:10:51;9.03;;;5.90;;
59530;SDS011;45349;48.692;8.186;2023-04-06T14:13:19;10.03;;;5.93;;
59530;SDS011;45349;48.692;8.186;2023-04-06T14:15:45;8.63;;;5.50;;
59530;SDS011;45349;48.692;8.186;2023-04-06T14:18:12;8.77;;;5.63;;
59530;SDS011;45349;48.692;8.186;2023-04-06T14:20:39;7.90;;;5.60;;
59530;SDS011;45349;48.692;8.186;2023-04-06T14:23:05;9.93;;;6.20;;
59530;SDS011;45349;48.692;8.186;2023-04-06T14:25:33;11.37;;;6.80;;
59530;SDS011;45349;48.692;8.186;2023-04-06T14:28:00;9.63;;;6.00;;
59530;SDS011;45349;48.692;8.186;2023-04-06T14:30:27;11.97;;;6.17;;
59530;SDS011;45349;48.692;8.186;2023-04-06T14:32:56;10.63;;;6.43;;
59530;SDS011;45349;48.692;8.186;2023-04-06T14:35:23;9.77;;;6.43;;
59530;SDS011;45349;48.692;8.186;2023-04-06T14:37:50;9.77;;;6.27;;
59530;SDS011;45349;48.692;8.186;2023-04-06T14:40:17;11.83;;;7.47;;
59530;SDS011;45349;48.692;8.186;2023-04-06T14:42:45;17.00;;;7.13;;
59530;SDS011;45349;48.692;8.186;2023-04-06T14:45:11;10.60;;;6.70;;
59530;SDS011;45349;48.692;8.186;2023-04-06T14:47:38;12.17;;;6.30;;
59530;SDS011;45349;48.692;8.186;2023-04-06T14:50:05;10.77;;;5.93;;
59530;SDS011;45349;48.692;8.186;2023-04-06T14:52:33;10.97;;;6.47;;